Time;durP1;ratioP1;P1;durP2;ratioP2;P2;SDS_P1;SDS_P2;PMS_P1;PMS_P2;Temp;Humidity;BMP_temperature;BMP_pressure;BME280_temperature;BME280_humidity;BME280_pressure;Samples;Min_cycle;Max_cycle;Signal;HPM_P1;HPM_P2
2022/07/15 00:00:04;;;;;;;0.30;0.30;;;;;;;26.03;nan;95156.28;5047218;28;20203;-65
2022/07/15 00:02:31;;;;;;;0.20;0.20;;;;;;;25.94;nan;95152.19;5038160;28;20198;-66
2022/07/15 00:04:58;;;;;;;0.20;0.20;;;;;;;26.00;nan;95158.88;5049142;28;20228;-65
2022/07/15 00:07:25;;;;;;;0.43;0.43;;;;;;;25.94;nan;95154.88;5049410;28;20667;-67
2022/07/15 00:10:25;;;;;;;11.80;8.63;;;;;;;26.00;nan;95158.88;5021993;28;20208;-66
2022/07/15 00:12:55;;;;;;;9.50;8.53;;;;;;;26.20;nan;95152.50;5045681;28;20627;-66
2022/07/15 00:15:27;;;;;;;4.90;1.80;;;;;;;26.03;nan;95155.50;5009849;28;20197;-64
2022/07/15 00:17:56;;;;;;;0.30;0.30;;;;;;;25.70;nan;95160.41;5014683;28;20260;-64
2022/07/15 00:20:23;;;;;;;0.40;0.40;;;;;;;25.47;nan;95162.09;5040535;28;20204;-65
2022/07/15 00:22:50;;;;;;;0.10;0.10;;;;;;;25.67;nan;95161.09;5044807;28;20736;-64
2022/07/15 00:25:17;;;;;;;1.27;0.53;;;;;;;25.54;nan;95151.53;5040698;28;20211;-65
2022/07/15 00:27:54;;;;;;;0.13;0.13;;;;;;;25.61;nan;95162.47;5039669;28;20228;-64
2022/07/15 00:30:22;;;;;;;0.17;0.17;;;;;;;25.51;nan;95162.97;5026651;28;20212;-65
2022/07/15 00:32:51;;;;;;;0.40;0.40;;;;;;;25.35;nan;95164.78;5026089;28;20197;-63
2022/07/15 00:35:18;;;;;;;0.40;0.40;;;;;;;24.38;nan;95170.31;5039166;28;20192;-64
2022/07/15 00:37:46;;;;;;;0.43;0.43;;;;;;;24.24;nan;95169.88;5030317;28;20731;-64
2022/07/15 00:40:13;;;;;;;4.03;0.63;;;;;;;24.40;nan;95173.44;5049601;28;20266;-64
2022/07/15 00:42:46;;;;;;;0.30;0.30;;;;;;;24.77;nan;95166.97;5053324;28;20197;-65
2022/07/15 00:45:18;;;;;;;0.17;0.17;;;;;;;24.73;nan;95166.09;5052129;28;20282;-65
2022/07/15 00:47:49;;;;;;;0.40;0.40;;;;;;;24.76;nan;95165.41;5053017;28;20683;-64
2022/07/15 00:50:17;;;;;;;0.57;0.57;;;;;;;24.58;nan;95156.00;5023954;28;20684;-62
2022/07/15 00:52:56;;;;;;;0.47;0.47;;;;;;;24.58;nan;95156.00;5052904;28;20224;-65
2022/07/15 00:55:24;;;;;;;0.47;0.47;;;;;;;24.59;nan;95152.25;5041016;28;20205;-64
2022/07/15 00:57:55;;;;;;;0.57;0.50;;;;;;;24.81;nan;95151.00;5038282;28;20656;-63
2022/07/15 01:00:23;;;;;;;0.30;0.30;;;;;;;24.59;nan;95152.25;5034462;28;20204;-63
2022/07/15 01:02:53;;;;;;;0.57;0.57;;;;;;;24.95;nan;95149.50;5042425;28;20184;-64
2022/07/15 01:05:21;;;;;;;1.80;1.30;;;;;;;25.00;nan;95143.09;5047962;28;20593;-65
2022/07/15 01:07:52;;;;;;;1.47;1.37;;;;;;;24.93;nan;95141.03;5035257;28;20196;-64
2022/07/15 01:10:21;;;;;;;0.03;0.03;;;;;;;24.97;nan;95131.19;5031442;28;20676;-63
2022/07/15 01:12:49;;;;;;;0.40;0.40;;;;;;;24.73;nan;95144.63;5051236;28;20200;-64
2022/07/15 01:15:22;;;;;;;0.20;0.20;;;;;;;24.84;nan;95140.38;5051484;28;20300;-64
2022/07/15 01:17:49;;;;;;;0.20;0.20;;;;;;;24.86;nan;95143.50;5049283;28;20200;-68
2022/07/15 01:20:17;;;;;;;0.27;0.27;;;;;;;24.65;nan;95142.81;5039363;28;20283;-65
2022/07/15 01:23:00;;;;;;;0.20;0.20;;;;;;;24.58;nan;95147.97;5021476;28;20664;-62
2022/07/15 01:25:41;;;;;;;0.57;0.33;;;;;;;24.68;nan;95144.84;5037634;28;20229;-63
2022/07/15 01:28:11;;;;;;;0.67;0.47;;;;;;;24.66;nan;95138.25;5042026;28;20225;-63
2022/07/15 01:30:39;;;;;;;0.40;0.40;;;;;;;24.68;nan;95142.16;5011502;28;20226;-63
2022/07/15 01:33:11;;;;;;;0.50;0.50;;;;;;;24.59;nan;95130.81;5039185;28;20198;-64
2022/07/15 01:35:38;;;;;;;1.70;0.80;;;;;;;24.57;nan;95129.56;5033292;28;20201;-65
2022/07/15 01:38:06;;;;;;;0.47;0.47;;;;;;;24.73;nan;95128.56;5023055;28;20195;-63
2022/07/15 01:40:34;;;;;;;0.53;0.53;;;;;;;24.74;nan;95124.75;5041590;28;20209;-64
2022/07/15 01:43:03;;;;;;;0.30;0.30;;;;;;;24.07;nan;95133.38;5032805;28;20201;-64
2022/07/15 01:45:30;;;;;;;0.33;0.33;;;;;;;24.28;nan;95135.97;5052369;28;20216;-63
2022/07/15 01:47:58;;;;;;;0.53;0.53;;;;;;;24.40;nan;95135.94;5037050;28;20803;-64
2022/07/15 01:50:59;;;;;;;0.10;0.10;;;;;;;24.64;nan;95130.56;5056331;28;20208;-64
2022/07/15 01:53:27;;;;;;;0.70;0.70;;;;;;;24.52;nan;95137.84;5046688;28;20295;-62
2022/07/15 01:55:54;;;;;;;0.20;0.20;;;;;;;24.49;nan;95133.94;5021070;28;20190;-63
2022/07/15 01:58:22;;;;;;;10.40;1.03;;;;;;;24.50;nan;95129.34;5038835;28;20224;-63
2022/07/15 02:00:49;;;;;;;0.30;0.30;;;;;;;24.53;nan;95134.81;5029057;28;20213;-62
2022/07/15 02:03:18;;;;;;;0.20;0.20;;;;;;;24.50;nan;95140.06;5045280;28;20293;-67
2022/07/15 02:05:45;;;;;;;0.30;0.30;;;;;;;24.22;nan;95139.19;5051406;28;20224;-63
2022/07/15 02:08:13;;;;;;;0.20;0.20;;;;;;;24.36;nan;95145.00;5040157;28;20201;-63
2022/07/15 02:10:43;;;;;;;0.63;0.63;;;;;;;24.29;nan;95150.16;5043173;28;20254;-62
2022/07/15 02:13:15;;;;;;;0.30;0.30;;;;;;;24.12;nan;95148.47;5050254;28;20202;-62
2022/07/15 02:15:47;;;;;;;1.07;0.97;;;;;;;24.09;nan;95141.09;5037573;28;20605;-63
2022/07/15 02:18:14;;;;;;;0.10;0.10;;;;;;;24.01;nan;95150.00;5050488;28;20664;-65
2022/07/15 02:20:42;;;;;;;0.30;0.30;;;;;;;24.12;nan;95147.66;5050455;28;20525;-62
2022/07/15 02:23:09;;;;;;;0.47;0.43;;;;;;;23.97;nan;95149.09;5047705;28;20234;-64
2022/07/15 02:25:36;;;;;;;0.50;0.50;;;;;;;23.89;nan;95141.94;5040196;28;20211;-65
2022/07/15 02:28:05;;;;;;;0.50;0.50;;;;;;;23.97;nan;95149.88;5045905;28;20232;-65
2022/07/15 02:30:36;;;;;;;0.60;0.60;;;;;;;23.80;nan;95144.72;5026931;28;20586;-63
2022/07/15 02:33:05;;;;;;;1.00;0.93;;;;;;;23.74;nan;95151.38;5035639;28;20189;-63
2022/07/15 02:35:33;;;;;;;0.10;0.10;;;;;;;23.70;nan;95149.72;5035280;28;20194;-62
2022/07/15 02:38:00;;;;;;;0.20;0.20;;;;;;;23.71;nan;95145.91;5023710;28;20720;-63
2022/07/15 02:40:29;;;;;;;0.30;0.30;;;;;;;23.77;nan;95149.94;5023903;28;20217;-63
2022/07/15 02:42:59;;;;;;;0.30;0.30;;;;;;;23.80;nan;95143.91;5022540;28;20212;-63
2022/07/15 02:45:30;;;;;;;0.40;0.40;;;;;;;23.67;nan;95145.00;5029493;28;20687;-65
2022/07/15 02:47:57;;;;;;;0.43;0.43;;;;;;;23.46;nan;95142.41;5043004;28;20710;-63
2022/07/15 02:50:29;;;;;;;0.10;0.10;;;;;;;23.24;nan;95150.75;5035485;28;20255;-62
2022/07/15 02:52:56;;;;;;;0.30;0.30;;;;;;;23.30;nan;95140.69;5038193;28;20710;-63
2022/07/15 02:55:23;;;;;;;0.40;0.40;;;;;;;23.41;nan;95142.59;5035079;28;20572;-61
2022/07/15 02:57:50;;;;;;;0.30;0.30;;;;;;;22.77;nan;95142.16;5023025;28;20248;-63
2022/07/15 03:00:19;;;;;;;1.60;0.60;;;;;;;22.92;nan;95144.25;5047355;28;20188;-63
2022/07/15 03:02:50;;;;;;;0.87;0.63;;;;;;;23.24;nan;95147.31;5049117;28;20193;-63
2022/07/15 03:05:18;;;;;;;0.10;0.10;;;;;;;23.32;nan;95138.47;5045868;28;20217;-65
2022/07/15 03:07:46;;;;;;;0.20;0.20;;;;;;;23.58;nan;95142.44;5033632;28;20273;-61
2022/07/15 03:10:17;;;;;;;0.57;0.57;;;;;;;23.69;nan;95148.13;5028579;28;20675;-64
2022/07/15 03:12:46;;;;;;;0.50;0.50;;;;;;;23.61;nan;95135.66;5033101;28;20193;-64
2022/07/15 03:15:13;;;;;;;0.10;0.10;;;;;;;23.74;nan;95146.03;5028553;28;20215;-63
2022/07/15 03:17:41;;;;;;;0.10;0.10;;;;;;;23.52;nan;95137.63;5038169;28;20273;-64
2022/07/15 03:20:10;;;;;;;0.23;0.23;;;;;;;23.53;nan;95139.19;5049081;28;20203;-66
2022/07/15 03:22:43;;;;;;;0.30;0.30;;;;;;;23.62;nan;95137.19;5048272;28;20199;-62
2022/07/15 03:25:10;;;;;;;0.40;0.40;;;;;;;23.39;nan;95133.34;5047627;28;20305;-64
2022/07/15 03:27:38;;;;;;;0.20;0.20;;;;;;;23.49;nan;95138.28;5040040;28;20606;-63
2022/07/15 03:30:07;;;;;;;0.70;0.70;;;;;;;23.49;nan;95128.38;5039034;28;20323;-63
2022/07/15 03:32:34;;;;;;;0.30;0.30;;;;;;;23.42;nan;95138.03;5020556;28;20245;-63
2022/07/15 03:35:01;;;;;;;0.20;0.20;;;;;;;23.63;nan;95122.72;5038171;28;20347;-62
2022/07/15 03:37:32;;;;;;;0.10;0.10;;;;;;;23.32;nan;95133.13;5031905;28;20192;-63
2022/07/15 03:39:59;;;;;;;0.30;0.30;;;;;;;23.48;nan;95126.03;5039179;28;20205;-65
2022/07/15 03:42:26;;;;;;;0.20;0.20;;;;;;;23.64;nan;95118.91;5013340;28;20198;-64
2022/07/15 03:44:53;;;;;;;0.23;0.23;;;;;;;23.75;nan;95136.13;5024898;28;20369;-63
2022/07/15 03:47:20;;;;;;;0.87;0.77;;;;;;;23.86;nan;95139.94;5020576;28;20448;-65
2022/07/15 03:49:49;;;;;;;0.37;0.37;;;;;;;23.86;nan;95134.56;5016235;28;20201;-63
2022/07/15 03:52:15;;;;;;;0.10;0.10;;;;;;;23.96;nan;95131.44;5012350;28;20197;-63
2022/07/15 03:54:42;;;;;;;0.17;0.17;;;;;;;23.83;nan;95106.56;5015781;28;20718;-64
2022/07/15 03:57:09;;;;;;;0.10;0.10;;;;;;;23.61;nan;95141.00;5029856;28;20213;-66
2022/07/15 03:59:36;;;;;;;0.10;0.10;;;;;;;23.68;nan;95128.66;5016259;28;20193;-63
2022/07/15 04:02:03;;;;;;;0.53;0.53;;;;;;;23.85;nan;95133.00;5009008;28;20271;-64
2022/07/15 04:04:30;;;;;;;0.20;0.20;;;;;;;23.95;nan;95127.22;5028361;28;20236;-63
2022/07/15 04:06:57;;;;;;;0.23;0.20;;;;;;;23.93;nan;95126.75;5012691;28;20198;-64
2022/07/15 04:09:24;;;;;;;0.20;0.20;;;;;;;24.05;nan;95134.81;5008995;28;20206;-64
2022/07/15 04:11:51;;;;;;;0.50;0.50;;;;;;;24.09;nan;95141.09;5029798;28;20228;-64
2022/07/15 04:14:22;;;;;;;0.73;0.73;;;;;;;23.92;nan;95141.28;5042690;28;20295;-63
2022/07/15 04:16:49;;;;;;;0.60;0.40;;;;;;;24.01;nan;95144.66;5048437;28;20201;-69
2022/07/15 04:19:34;;;;;;;0.30;0.30;;;;;;;24.04;nan;95139.41;5048780;28;20197;-64
2022/07/15 04:22:03;;;;;;;0.10;0.10;;;;;;;24.26;nan;95140.88;5031300;28;20227;-67
2022/07/15 04:24:38;;;;;;;0.10;0.10;;;;;;;24.08;nan;95139.53;5024213;28;20196;-65
2022/07/15 04:27:08;;;;;;;0.30;0.30;;;;;;;24.34;nan;95137.31;5036587;28;20391;-64
2022/07/15 04:29:35;;;;;;;0.50;0.50;;;;;;;24.22;nan;95134.63;5042151;28;20295;-65
2022/07/15 04:32:04;;;;;;;5.07;2.57;;;;;;;24.42;nan;95139.06;5040586;28;20201;-70
2022/07/15 04:34:36;;;;;;;0.50;0.40;;;;;;;24.62;nan;95148.88;5027591;28;20197;-64
2022/07/15 04:37:03;;;;;;;0.57;0.57;;;;;;;24.53;nan;95142.06;5034541;28;20207;-69
2022/07/15 04:39:30;;;;;;;0.10;0.10;;;;;;;24.64;nan;95146.63;5035770;28;20880;-68
2022/07/15 04:41:58;;;;;;;0.77;0.47;;;;;;;24.70;nan;95150.69;5041701;28;20304;-72
2022/07/15 04:44:25;;;;;;;0.77;0.77;;;;;;;24.58;nan;95153.34;5029076;28;20196;-67
2022/07/15 04:46:52;;;;;;;1.50;1.40;;;;;;;24.65;nan;95147.44;5017736;28;20214;-65
2022/07/15 04:52:21;;;;;;;9.40;7.40;;;;;;;24.94;nan;95134.53;5015417;28;20201;-73
2022/07/15 04:54:51;;;;;;;1.67;1.57;;;;;;;24.58;nan;95139.94;5037146;28;20192;-71
2022/07/15 04:57:18;;;;;;;1.80;1.37;;;;;;;24.90;nan;95122.94;5022947;28;20694;-64
2022/07/15 04:59:45;;;;;;;0.40;0.40;;;;;;;24.74;nan;95148.88;5033995;28;20628;-64
2022/07/15 05:02:16;;;;;;;2.37;1.60;;;;;;;24.78;nan;95147.09;5015849;28;20190;-66
2022/07/15 05:04:48;;;;;;;0.30;0.30;;;;;;;24.71;nan;95151.44;5027925;28;20223;-66
2022/07/15 05:07:17;;;;;;;0.30;0.30;;;;;;;24.64;nan;95137.81;5048394;28;20196;-65
2022/07/15 05:09:44;;;;;;;0.47;0.47;;;;;;;24.58;nan;95149.91;5017209;28;20195;-68
2022/07/15 05:12:12;;;;;;;0.60;0.60;;;;;;;24.92;nan;95147.50;5044279;28;20338;-71
2022/07/15 05:14:45;;;;;;;60.97;21.83;;;;;;;25.32;nan;95149.38;5048211;28;20193;-70
2022/07/15 05:17:14;;;;;;;3.23;2.93;;;;;;;25.24;nan;95143.03;5031126;28;20426;-67
2022/07/15 05:19:43;;;;;;;0.63;0.63;;;;;;;25.15;nan;95138.94;5017021;28;20185;-62
2022/07/15 05:22:13;;;;;;;0.70;0.70;;;;;;;24.51;nan;95150.44;5021458;28;20202;-66
2022/07/15 05:24:40;;;;;;;0.30;0.30;;;;;;;24.87;nan;95145.03;5028857;28;20232;-69
2022/07/15 05:27:07;;;;;;;0.20;0.20;;;;;;;24.76;nan;95133.22;5052103;28;20885;-70
2022/07/15 05:29:34;;;;;;;0.20;0.20;;;;;;;25.08;nan;95143.00;5050571;28;20188;-67
2022/07/15 05:32:01;;;;;;;5.20;1.90;;;;;;;24.80;nan;95142.16;5030910;28;20185;-67
2022/07/15 05:34:28;;;;;;;0.40;0.40;;;;;;;25.25;nan;95141.13;5043685;28;20196;-65
2022/07/15 05:36:57;;;;;;;0.30;0.30;;;;;;;25.47;nan;95129.91;5030334;28;20190;-65
2022/07/15 05:39:24;;;;;;;0.40;0.40;;;;;;;25.06;nan;95133.72;5040517;28;20976;-65
2022/07/15 05:41:53;;;;;;;1.13;0.70;;;;;;;25.28;nan;95138.56;5029400;28;20212;-66
2022/07/15 05:44:20;;;;;;;0.77;0.60;;;;;;;24.96;nan;95134.97;5020537;28;20545;-66
2022/07/15 05:46:50;;;;;;;1.07;0.77;;;;;;;25.35;nan;95138.75;5043002;28;20231;-66
2022/07/15 05:49:19;;;;;;;6.30;1.13;;;;;;;25.37;nan;95141.06;5050377;28;20203;-65
2022/07/15 05:51:48;;;;;;;0.30;0.30;;;;;;;25.03;nan;95132.50;5021007;28;20205;-65
2022/07/15 05:54:15;;;;;;;1.00;0.90;;;;;;;25.83;nan;95143.09;5023118;28;20206;-65
2022/07/15 05:56:44;;;;;;;0.47;0.47;;;;;;;26.19;nan;95137.50;5013379;28;20201;-66
2022/07/15 05:59:18;;;;;;;0.40;0.40;;;;;;;25.80;nan;95133.06;5015010;28;20331;-65
2022/07/15 06:01:46;;;;;;;0.20;0.20;;;;;;;25.06;nan;95137.19;5018425;28;20198;-65
2022/07/15 06:04:14;;;;;;;2.00;1.77;;;;;;;25.92;nan;95136.44;5050207;28;20250;-66
2022/07/15 06:06:44;;;;;;;1.20;0.93;;;;;;;26.12;nan;95125.81;5035954;28;20243;-65
2022/07/15 06:09:12;;;;;;;0.43;0.43;;;;;;;25.70;nan;95133.56;5022000;28;20233;-66
2022/07/15 06:11:39;;;;;;;0.37;0.37;;;;;;;26.30;nan;95135.84;5037846;28;20186;-67
2022/07/15 06:14:06;;;;;;;0.27;0.27;;;;;;;25.93;nan;95123.78;5039530;28;20201;-66
2022/07/15 06:16:34;;;;;;;0.30;0.30;;;;;;;25.75;nan;95135.97;5015928;28;20205;-66
2022/07/15 06:19:01;;;;;;;0.50;0.50;;;;;;;26.31;nan;95132.03;5041769;28;20216;-65
2022/07/15 06:21:29;;;;;;;0.30;0.30;;;;;;;26.61;nan;95140.38;5031424;28;20695;-66
2022/07/15 06:23:57;;;;;;;0.40;0.40;;;;;;;26.39;nan;95135.66;5020070;28;20661;-66
2022/07/15 06:26:24;;;;;;;0.43;0.43;;;;;;;26.11;nan;95138.47;5037534;28;20256;-66
2022/07/15 06:28:51;;;;;;;0.43;0.43;;;;;;;26.16;nan;95132.84;5026746;28;20197;-66
2022/07/15 06:31:20;;;;;;;5.90;0.90;;;;;;;26.76;nan;95132.31;5034804;28;20212;-67
2022/07/15 06:33:46;;;;;;;0.93;0.87;;;;;;;27.00;nan;95132.06;5029858;28;20303;-66
2022/07/15 06:36:13;;;;;;;2.63;0.87;;;;;;;26.76;nan;95135.00;5044410;28;20754;-66
2022/07/15 06:38:44;;;;;;;0.20;0.20;;;;;;;26.81;nan;95123.19;5029702;28;20205;-66
2022/07/15 06:41:11;;;;;;;0.33;0.33;;;;;;;27.27;nan;95134.88;5017700;28;20588;-67
2022/07/15 06:43:39;;;;;;;0.50;0.43;;;;;;;27.09;nan;95136.44;5046085;28;20283;-67
2022/07/15 06:46:11;;;;;;;0.27;0.27;;;;;;;27.30;nan;95134.19;5027344;28;20275;-67
2022/07/15 06:48:41;;;;;;;0.27;0.27;;;;;;;27.52;nan;95125.41;5025105;28;20683;-67
2022/07/15 06:51:09;;;;;;;0.30;0.30;;;;;;;27.82;nan;95124.44;5030975;28;20200;-68
2022/07/15 06:53:36;;;;;;;0.33;0.30;;;;;;;27.85;nan;95122.91;5021213;28;20641;-66
2022/07/15 06:56:03;;;;;;;0.27;0.27;;;;;;;28.14;nan;95130.38;5026895;28;20868;-66
2022/07/15 06:58:30;;;;;;;0.33;0.30;;;;;;;27.92;nan;95131.13;5030102;28;20280;-66
2022/07/15 07:00:59;;;;;;;0.47;0.47;;;;;;;27.80;nan;95126.72;5049313;28;20194;-67
2022/07/15 07:03:26;;;;;;;0.67;0.67;;;;;;;28.03;nan;95112.50;5048037;28;20584;-66
2022/07/15 07:06:13;;;;;;;0.93;0.93;;;;;;;28.07;nan;95116.78;5019191;28;20221;-69
2022/07/15 07:08:40;;;;;;;0.33;0.33;;;;;;;28.39;nan;95115.38;5015948;28;20197;-66
2022/07/15 07:11:07;;;;;;;0.30;0.30;;;;;;;27.64;nan;95123.34;5026810;28;20197;-67
2022/07/15 07:13:34;;;;;;;0.90;0.60;;;;;;;28.42;nan;95122.75;5022067;28;20343;-66
2022/07/15 07:16:01;;;;;;;0.20;0.20;;;;;;;28.49;nan;95117.44;5025719;28;20698;-66
2022/07/15 07:18:29;;;;;;;0.20;0.20;;;;;;;28.56;nan;95117.56;5036212;28;20288;-66
2022/07/15 07:20:56;;;;;;;4.83;1.13;;;;;;;28.76;nan;95119.00;5010770;28;20729;-67
2022/07/15 07:23:26;;;;;;;0.17;0.17;;;;;;;28.68;nan;95114.69;5038802;28;20225;-66
2022/07/15 07:25:54;;;;;;;0.13;0.13;;;;;;;28.88;nan;95116.09;5034174;28;20232;-67
2022/07/15 07:28:21;;;;;;;0.50;0.50;;;;;;;28.71;nan;95108.53;5045319;28;20691;-67
2022/07/15 07:30:50;;;;;;;0.60;0.60;;;;;;;28.38;nan;95107.63;5029865;28;20197;-66
2022/07/15 07:33:18;;;;;;;0.40;0.40;;;;;;;28.46;nan;95096.63;5018856;28;20200;-66
2022/07/15 07:35:44;;;;;;;0.37;0.37;;;;;;;28.83;nan;95102.91;5031889;28;20284;-67
2022/07/15 07:38:11;;;;;;;1.13;1.10;;;;;;;28.98;nan;95103.13;5039429;28;20203;-67
2022/07/15 07:40:38;;;;;;;0.17;0.17;;;;;;;28.61;nan;95106.47;5029674;28;20205;-67
2022/07/15 07:43:05;;;;;;;0.30;0.30;;;;;;;29.29;nan;95098.09;5016484;28;20196;-68
2022/07/15 07:45:32;;;;;;;0.73;0.47;;;;;;;29.33;nan;95090.06;5037853;28;20205;-67
2022/07/15 07:47:59;;;;;;;0.60;0.60;;;;;;;29.26;nan;95092.66;5033982;28;20729;-67
2022/07/15 07:50:26;;;;;;;0.50;0.30;;;;;;;29.62;nan;95100.78;5045517;28;20280;-66
2022/07/15 07:52:53;;;;;;;0.87;0.60;;;;;;;29.26;nan;95104.25;5029667;28;20199;-66
2022/07/15 07:55:20;;;;;;;0.83;0.73;;;;;;;29.20;nan;95102.22;5013264;28;20346;-68
2022/07/15 07:57:51;;;;;;;0.50;0.50;;;;;;;29.90;nan;95101.09;5025069;28;20198;-67
2022/07/15 08:00:19;;;;;;;1.53;1.23;;;;;;;29.61;nan;95103.84;5009869;28;20185;-68
2022/07/15 08:02:47;;;;;;;1.00;0.90;;;;;;;29.80;nan;95095.56;5020291;28;20194;-67
2022/07/15 08:05:15;;;;;;;0.73;0.73;;;;;;;29.60;nan;95096.88;5016062;28;20193;-69
2022/07/15 08:07:48;;;;;;;0.37;0.37;;;;;;;29.78;nan;95106.00;5019570;28;20332;-66
2022/07/15 08:10:16;;;;;;;1.13;1.03;;;;;;;29.69;nan;95094.69;5019075;28;20207;-66
2022/07/15 08:12:43;;;;;;;0.40;0.40;;;;;;;28.23;nan;95095.88;5017466;28;20328;-68
2022/07/15 08:15:11;;;;;;;0.30;0.30;;;;;;;29.65;nan;95088.47;5049831;28;20187;-66
2022/07/15 08:17:40;;;;;;;0.20;0.20;;;;;;;29.65;nan;95088.47;5021106;28;20190;-68
2022/07/15 08:20:08;;;;;;;0.70;0.53;;;;;;;29.96;nan;95081.81;5009677;28;20200;-67
2022/07/15 08:22:36;;;;;;;0.87;0.60;;;;;;;30.40;nan;95064.41;5035349;28;20246;-68
2022/07/15 08:25:04;;;;;;;0.30;0.30;;;;;;;30.11;nan;95084.25;5020949;28;20197;-68
2022/07/15 08:27:31;;;;;;;0.23;0.23;;;;;;;30.69;nan;95082.34;5049190;28;20307;-68
2022/07/15 08:29:58;;;;;;;0.77;0.30;;;;;;;30.49;nan;95078.38;5050102;28;20196;-68
2022/07/15 08:32:25;;;;;;;0.40;0.40;;;;;;;30.54;nan;95082.66;5029900;28;20225;-66
2022/07/15 08:34:52;;;;;;;0.20;0.20;;;;;;;30.45;nan;95077.59;5037586;28;20246;-66
2022/07/15 08:37:18;;;;;;;0.80;0.50;;;;;;;30.92;nan;95070.50;5025756;28;20690;-68
2022/07/15 08:39:45;;;;;;;0.17;0.17;;;;;;;30.51;nan;95069.91;5035063;28;20197;-67
2022/07/15 08:42:13;;;;;;;0.30;0.30;;;;;;;30.24;nan;95071.22;5036371;28;20495;-67
2022/07/15 08:44:40;;;;;;;0.50;0.50;;;;;;;31.26;nan;95077.25;5037373;28;20672;-68
2022/07/15 08:47:07;;;;;;;0.20;0.20;;;;;;;31.52;nan;95072.28;5019965;28;20216;-67
2022/07/15 08:49:55;;;;;;;0.57;0.57;;;;;;;31.21;nan;95064.84;5046107;28;20196;-67
2022/07/15 08:52:24;;;;;;;0.40;0.40;;;;;;;31.12;nan;95052.81;5017989;28;20221;-67
2022/07/15 08:54:51;;;;;;;1.13;1.03;;;;;;;31.44;nan;95072.66;5020540;28;20202;-66
2022/07/15 08:57:19;;;;;;;0.43;0.43;;;;;;;31.53;nan;95064.94;5028149;28;20202;-65
2022/07/15 08:59:46;;;;;;;0.30;0.30;;;;;;;31.68;nan;95061.09;5039063;28;20295;-68
2022/07/15 09:02:14;;;;;;;0.30;0.30;;;;;;;31.40;nan;95066.47;5024692;28;20646;-67
2022/07/15 09:05:21;;;;;;;1.20;0.93;;;;;;;31.85;nan;95065.75;5028137;28;20206;-67
2022/07/15 09:08:06;;;;;;;1.53;1.23;;;;;;;32.11;nan;95061.91;5019616;28;20259;-66
2022/07/15 09:10:52;;;;;;;0.40;0.40;;;;;;;32.05;nan;95058.81;5024586;28;20185;-67
2022/07/15 09:13:32;;;;;;;1.20;0.93;;;;;;;32.72;nan;95059.50;5012948;28;20194;-67
2022/07/15 09:16:10;;;;;;;0.20;0.20;;;;;;;32.81;nan;95050.94;5013667;28;20568;-68
2022/07/15 09:18:41;;;;;;;0.83;0.83;;;;;;;31.91;nan;95048.00;5044352;28;20200;-67
2022/07/15 09:21:20;;;;;;;0.47;0.47;;;;;;;32.58;nan;95054.13;5045585;28;20250;-69
2022/07/15 09:23:50;;;;;;;0.40;0.40;;;;;;;33.04;nan;95048.56;5021114;28;20719;-67
2022/07/15 09:26:36;;;;;;;0.50;0.50;;;;;;;32.51;nan;95053.38;5031899;28;20294;-67
2022/07/15 09:33:34;;;;;;;1.60;1.50;;;;;;;32.35;nan;95050.28;5042148;28;20234;-67
2022/07/15 09:35:01;;;;;;;0.37;0.37;;;;;;;33.06;nan;95048.19;5051032;28;20266;-67
2022/07/15 09:37:29;;;;;;;0.33;0.33;;;;;;;33.38;nan;95024.34;5032338;28;20694;-69
2022/07/15 09:39:57;;;;;;;0.93;0.60;;;;;;;33.02;nan;95045.47;5030253;28;20259;-69
2022/07/15 09:42:24;;;;;;;0.30;0.30;;;;;;;33.58;nan;95044.41;5020531;28;20193;-68
2022/07/15 09:44:51;;;;;;;0.30;0.30;;;;;;;33.40;nan;95038.28;5032246;28;20205;-67
2022/07/15 09:47:19;;;;;;;0.20;0.20;;;;;;;34.06;nan;95034.38;5052028;28;20220;-68
2022/07/15 09:49:47;;;;;;;0.43;0.43;;;;;;;33.38;nan;95035.19;5026505;28;20201;-67
2022/07/15 09:52:15;;;;;;;0.40;0.40;;;;;;;33.28;nan;95041.47;5049902;28;20212;-67
2022/07/15 09:54:48;;;;;;;0.20;0.20;;;;;;;33.74;nan;95028.41;5039866;28;20570;-69
2022/07/15 09:57:17;;;;;;;0.40;0.40;;;;;;;33.78;nan;95033.81;5018980;28;20205;-68
2022/07/15 09:59:47;;;;;;;0.40;0.40;;;;;;;34.19;nan;95030.00;5018097;28;20681;-67
2022/07/15 10:02:14;;;;;;;0.37;0.37;;;;;;;34.48;nan;95020.41;5017590;28;20691;-67
2022/07/15 10:04:42;;;;;;;0.30;0.30;;;;;;;33.62;nan;95031.59;5043849;28;20206;-65
2022/07/15 10:07:13;;;;;;;0.40;0.40;;;;;;;33.12;nan;95027.59;5032787;28;20309;-67
2022/07/15 10:09:58;;;;;;;0.57;0.47;;;;;;;33.07;nan;95033.41;5018252;28;20255;-66
2022/07/15 10:12:48;;;;;;;0.70;0.70;;;;;;;33.89;nan;95037.22;5017334;28;20267;-66
2022/07/15 10:15:37;;;;;;;0.47;0.47;;;;;;;34.10;nan;95026.97;5051515;28;20238;-66
2022/07/15 10:18:17;;;;;;;0.40;0.40;;;;;;;33.87;nan;95025.97;5044112;28;20792;-68
2022/07/15 10:21:06;;;;;;;0.30;0.30;;;;;;;34.34;nan;95020.50;5034463;28;20223;-65
2022/07/15 10:23:55;;;;;;;0.53;0.50;;;;;;;34.47;nan;95013.41;5051326;28;20191;-67
2022/07/15 10:26:31;;;;;;;0.30;0.30;;;;;;;34.43;nan;95012.66;5019052;28;20276;-66
2022/07/15 10:29:04;;;;;;;1.13;0.47;;;;;;;34.70;nan;95024.44;5029801;28;20227;-65
2022/07/15 10:31:34;;;;;;;0.43;0.43;;;;;;;34.79;nan;95015.00;5036744;28;20726;-67
2022/07/15 10:34:07;;;;;;;0.40;0.40;;;;;;;34.92;nan;95016.03;5042464;28;20201;-65
2022/07/15 10:36:39;;;;;;;0.60;0.60;;;;;;;35.29;nan;95007.78;5042928;28;20660;-68
2022/07/15 10:39:08;;;;;;;0.53;0.53;;;;;;;35.04;nan;95010.06;5028770;28;20215;-67
2022/07/15 10:42:04;;;;;;;0.37;0.37;;;;;;;34.64;nan;95004.28;5037041;28;20207;-65
2022/07/15 10:44:47;;;;;;;0.40;0.40;;;;;;;34.34;nan;95001.47;5050444;28;20333;-65
2022/07/15 10:47:14;;;;;;;0.30;0.30;;;;;;;34.74;nan;94995.22;5036360;28;20220;-64
2022/07/15 10:49:47;;;;;;;2.27;1.03;;;;;;;35.16;nan;94993.97;5050304;28;20200;-65
2022/07/15 10:52:30;;;;;;;0.23;0.23;;;;;;;34.44;nan;94992.47;5022633;28;20188;-68
2022/07/15 10:55:04;;;;;;;2.57;1.53;;;;;;;35.23;nan;94990.34;5027875;28;20664;-68
2022/07/15 10:57:40;;;;;;;1.07;0.70;;;;;;;35.15;nan;94994.34;5010465;28;20388;-67
2022/07/15 11:00:28;;;;;;;0.40;0.40;;;;;;;35.38;nan;94989.72;5038171;28;20303;-67
2022/07/15 11:03:21;;;;;;;0.50;0.50;;;;;;;35.13;nan;94985.84;5028024;28;20220;-65
2022/07/15 11:05:50;;;;;;;0.60;0.60;;;;;;;34.85;nan;94994.31;5036701;28;20602;-68
2022/07/15 11:08:40;;;;;;;0.20;0.20;;;;;;;34.63;nan;94989.16;5009529;28;20620;-67
2022/07/15 11:11:13;;;;;;;0.30;0.30;;;;;;;34.91;nan;94981.81;5037620;28;20204;-67
2022/07/15 11:13:45;;;;;;;1.10;0.93;;;;;;;35.73;nan;94980.25;5028964;28;20279;-65
2022/07/15 11:16:15;;;;;;;0.40;0.33;;;;;;;35.28;nan;94979.75;5044560;28;20202;-67
2022/07/15 11:18:45;;;;;;;0.40;0.40;;;;;;;35.57;nan;94980.13;5027393;28;20196;-64
2022/07/15 11:21:13;;;;;;;0.30;0.30;;;;;;;35.66;nan;94972.19;5049387;28;20270;-68
2022/07/15 11:23:44;;;;;;;0.30;0.30;;;;;;;35.29;nan;94977.81;5048767;28;20664;-67
2022/07/15 11:26:11;;;;;;;0.40;0.40;;;;;;;35.50;nan;94977.53;5034247;28;20283;-65
2022/07/15 11:28:38;;;;;;;0.40;0.40;;;;;;;36.01;nan;94977.09;5028513;28;20282;-66
2022/07/15 11:31:05;;;;;;;2.13;0.50;;;;;;;35.39;nan;94974.16;5016663;28;20217;-68
2022/07/15 11:33:33;;;;;;;0.63;0.60;;;;;;;35.35;nan;94973.44;5032794;28;20194;-66
2022/07/15 11:36:02;;;;;;;0.80;0.80;;;;;;;36.40;nan;94973.72;5037508;28;20687;-67
2022/07/15 11:38:36;;;;;;;0.63;0.60;;;;;;;35.76;nan;94970.50;5028965;28;20193;-66
2022/07/15 11:46:53;;;;;;;0.47;0.40;;;;;;;36.08;nan;94966.06;5034335;28;20253;-69
2022/07/15 11:49:31;;;;;;;0.40;0.40;;;;;;;36.65;nan;94954.88;5030162;28;20190;-68
2022/07/15 11:51:59;;;;;;;0.80;0.80;;;;;;;36.92;nan;94958.25;5041674;28;20246;-65
2022/07/15 11:54:26;;;;;;;1.07;1.03;;;;;;;36.36;nan;94965.59;5040250;28;20228;-63
2022/07/15 11:56:58;;;;;;;0.70;0.70;;;;;;;36.96;nan;94958.16;5010115;28;20194;-63
2022/07/15 11:59:25;;;;;;;0.37;0.37;;;;;;;37.13;nan;94946.09;5030624;28;20242;-65
2022/07/15 12:02:08;;;;;;;0.33;0.33;;;;;;;36.99;nan;94946.41;5027761;28;20206;-65
2022/07/15 12:04:37;;;;;;;0.50;0.40;;;;;;;36.62;nan;94940.09;5020210;28;20208;-67
2022/07/15 12:07:05;;;;;;;0.23;0.23;;;;;;;36.54;nan;94941.44;5018688;28;20215;-67
2022/07/15 12:10:01;;;;;;;0.63;0.63;;;;;;;36.92;nan;94941.84;5016983;28;20626;-67
2022/07/15 12:12:31;;;;;;;0.20;0.20;;;;;;;36.74;nan;94946.13;5044378;28;20565;-64
2022/07/15 12:14:58;;;;;;;0.77;0.77;;;;;;;36.65;nan;94938.50;5020382;28;20705;-65
2022/07/15 12:17:25;;;;;;;2.47;0.73;;;;;;;36.81;nan;94946.75;5047207;28;20209;-67